Time;durP1;ratioP1;P1;durP2;ratioP2;P2;SDS_P1;SDS_P2;PMS_P1;PMS_P2;Temp;Humidity;BMP_temperature;BMP_pressure;BME280_temperature;BME280_humidity;BME280_pressure;Samples;Min_cycle;Max_cycle;Signal;HPM_P1;HPM_P2
2021/04/07 00:01:52;;;;;;;4.53;2.57;;;;;;;;;;4871420;29;20547;-86
2021/04/07 00:05:04;;;;;;;4.53;2.40;;;;;;;;;;4871409;29;20555;-87
2021/04/07 00:08:09;;;;;;;9.13;2.33;;;;;;;;;;4871496;29;20539;-86
2021/04/07 00:11:13;;;;;;;3.63;2.40;;;;;;;;;;4871331;29;20547;-86
2021/04/07 00:14:18;;;;;;;3.40;2.20;;;;;;;;;;4871197;29;20598;-86
2021/04/07 00:17:24;;;;;;;5.17;2.30;;;;;;;;;;4871546;29;20551;-87
2021/04/07 00:20:30;;;;;;;5.83;3.00;;;;;;;;;;4871493;29;21074;-86
2021/04/07 00:23:34;;;;;;;6.40;2.90;;;;;;;;;;4881117;29;21216;-86
2021/04/07 00:26:48;;;;;;;4.67;2.77;;;;;;;;;;4881764;29;20560;-86
2021/04/07 00:29:52;;;;;;;4.87;3.10;;;;;;;;;;4881534;29;20599;-86
2021/04/07 00:32:57;;;;;;;3.63;3.23;;;;;;;;;;4870854;29;20630;-86
2021/04/07 00:36:01;;;;;;;6.67;3.10;;;;;;;;;;4870912;29;20539;-86
2021/04/07 00:39:05;;;;;;;3.47;2.97;;;;;;;;;;4871125;29;20547;-86
2021/04/07 00:42:09;;;;;;;6.27;3.27;;;;;;;;;;4869715;29;20971;-86
2021/04/07 00:45:14;;;;;;;5.53;3.23;;;;;;;;;;4870311;29;21184;-87
2021/04/07 00:48:18;;;;;;;4.63;3.17;;;;;;;;;;4870592;29;20547;-86
2021/04/07 00:51:23;;;;;;;5.87;3.10;;;;;;;;;;4881492;29;20543;-87
2021/04/07 00:54:27;;;;;;;4.07;3.20;;;;;;;;;;4870829;29;20543;-86
2021/04/07 00:57:32;;;;;;;4.80;3.37;;;;;;;;;;4880742;29;20611;-86
2021/04/07 01:00:37;;;;;;;4.53;3.50;;;;;;;;;;4881171;29;20535;-86
2021/04/07 01:03:42;;;;;;;8.80;3.60;;;;;;;;;;4870242;29;20618;-86
2021/04/07 01:06:47;;;;;;;4.03;3.50;;;;;;;;;;4859763;29;20539;-86
2021/04/07 01:09:51;;;;;;;4.17;3.23;;;;;;;;;;4870298;29;20607;-86
2021/04/07 01:12:55;;;;;;;5.00;3.67;;;;;;;;;;4870004;29;20630;-86
2021/04/07 01:16:00;;;;;;;7.13;3.83;;;;;;;;;;4880818;29;20868;-86
2021/04/07 01:19:07;;;;;;;6.03;4.03;;;;;;;;;;4869747;29;20547;-86
2021/04/07 01:22:15;;;;;;;6.27;3.90;;;;;;;;;;4869658;29;20654;-86
2021/04/07 01:25:19;;;;;;;5.93;4.07;;;;;;;;;;4880771;29;20939;-86
2021/04/07 01:28:23;;;;;;;6.37;4.40;;;;;;;;;;4869545;29;20606;-86
2021/04/07 01:31:27;;;;;;;8.57;4.50;;;;;;;;;;4898805;29;20602;-86
2021/04/07 01:34:32;;;;;;;6.47;4.57;;;;;;;;;;4873369;29;20570;-86
2021/04/07 01:37:38;;;;;;;7.17;4.90;;;;;;;;;;4877890;29;20934;-86
2021/04/07 01:40:44;;;;;;;7.07;4.87;;;;;;;;;;4898446;29;20601;-86
2021/04/07 01:43:49;;;;;;;5.33;4.40;;;;;;;;;;4888401;29;20633;-86
2021/04/07 01:46:55;;;;;;;5.37;4.50;;;;;;;;;;4887981;29;20542;-86
2021/04/07 01:50:01;;;;;;;7.37;5.53;;;;;;;;;;4887931;29;20594;-86
2021/04/07 01:53:05;;;;;;;5.23;4.70;;;;;;;;;;4858587;29;20639;-86
2021/04/07 01:56:10;;;;;;;5.90;4.90;;;;;;;;;;4879989;29;20544;-86
2021/04/07 01:59:16;;;;;;;7.47;5.57;;;;;;;;;;4890739;29;20551;-86
2021/04/07 02:02:20;;;;;;;6.40;4.73;;;;;;;;;;4880486;29;20622;-86
2021/04/07 02:05:25;;;;;;;8.43;4.70;;;;;;;;;;4879815;29;20548;-86
2021/04/07 02:08:29;;;;;;;5.63;4.50;;;;;;;;;;4879633;29;20610;-86
2021/04/07 02:11:33;;;;;;;5.53;4.50;;;;;;;;;;4879567;29;20658;-86
2021/04/07 02:14:37;;;;;;;8.83;4.60;;;;;;;;;;4879726;29;20547;-86
2021/04/07 02:17:41;;;;;;;5.23;4.70;;;;;;;;;;4879489;29;20547;-86
2021/04/07 02:20:46;;;;;;;8.00;4.33;;;;;;;;;;4879562;29;20543;-86
2021/04/07 02:23:50;;;;;;;7.10;4.70;;;;;;;;;;4889689;29;20637;-86
2021/04/07 02:26:54;;;;;;;6.90;4.83;;;;;;;;;;4879240;29;20602;-86
2021/04/07 02:29:58;;;;;;;6.30;4.90;;;;;;;;;;4879388;29;20603;-86
2021/04/07 02:33:03;;;;;;;5.27;4.40;;;;;;;;;;4879363;29;20627;-86
2021/04/07 02:36:07;;;;;;;6.33;4.43;;;;;;;;;;4879280;29;20543;-86
2021/04/07 02:39:11;;;;;;;6.77;4.67;;;;;;;;;;4890044;29;20892;-86
2021/04/07 02:42:19;;;;;;;6.67;4.67;;;;;;;;;;4879065;29;20622;-86
2021/04/07 02:45:23;;;;;;;6.13;4.33;;;;;;;;;;4879285;29;20606;-86
2021/04/07 02:48:27;;;;;;;7.60;4.67;;;;;;;;;;4900947;29;21157;-86
2021/04/07 02:51:31;;;;;;;6.50;5.47;;;;;;;;;;4878940;29;20650;-86
2021/04/07 02:54:35;;;;;;;6.50;5.10;;;;;;;;;;4890198;29;20547;-86
2021/04/07 02:57:40;;;;;;;7.30;5.17;;;;;;;;;;4900851;29;20547;-86
2021/04/07 03:00:44;;;;;;;8.40;5.97;;;;;;;;;;4901023;29;20543;-86
2021/04/07 03:03:48;;;;;;;5.93;5.20;;;;;;;;;;4879242;29;21185;-86
2021/04/07 03:06:52;;;;;;;6.57;5.20;;;;;;;;;;4883315;29;20539;-86
2021/04/07 03:09:56;;;;;;;6.63;5.17;;;;;;;;;;4894141;29;20931;-86
2021/04/07 03:13:00;;;;;;;7.03;4.97;;;;;;;;;;4882754;29;20627;-86
2021/04/07 03:16:05;;;;;;;6.60;5.20;;;;;;;;;;4893577;29;20543;-86
2021/04/07 03:19:09;;;;;;;6.80;4.97;;;;;;;;;;4893399;29;20602;-86
2021/04/07 03:22:14;;;;;;;5.63;4.90;;;;;;;;;;4893307;29;21224;-85
2021/04/07 03:25:18;;;;;;;5.80;4.80;;;;;;;;;;4904468;29;20547;-85
2021/04/07 03:28:22;;;;;;;5.43;4.80;;;;;;;;;;4893861;29;20544;-84
2021/04/07 03:31:27;;;;;;;7.60;4.67;;;;;;;;;;4890320;29;20637;-84
2021/04/07 03:34:31;;;;;;;5.10;4.00;;;;;;;;;;4891048;29;20550;-84
2021/04/07 03:37:35;;;;;;;5.30;4.10;;;;;;;;;;4891044;29;21065;-84
2021/04/07 03:40:41;;;;;;;5.70;4.20;;;;;;;;;;4890603;29;20558;-85
2021/04/07 03:43:45;;;;;;;4.63;3.60;;;;;;;;;;4890706;29;20625;-86
2021/04/07 03:46:53;;;;;;;5.30;3.50;;;;;;;;;;4901841;29;20550;-84
2021/04/07 03:49:57;;;;;;;4.33;3.80;;;;;;;;;;4893191;29;20555;-84
2021/04/07 03:53:01;;;;;;;5.47;3.83;;;;;;;;;;4871508;29;21201;-84
2021/04/07 03:56:06;;;;;;;5.43;4.07;;;;;;;;;;4871384;29;20543;-84
2021/04/07 03:59:10;;;;;;;5.97;3.57;;;;;;;;;;4882174;29;20546;-85
2021/04/07 04:02:14;;;;;;;4.53;3.90;;;;;;;;;;4882022;29;20630;-84
2021/04/07 04:05:19;;;;;;;7.93;4.30;;;;;;;;;;4882259;29;20547;-84
2021/04/07 04:08:23;;;;;;;5.27;3.63;;;;;;;;;;4871298;29;20547;-84
2021/04/07 04:11:27;;;;;;;5.10;3.77;;;;;;;;;;4882064;29;20602;-84
2021/04/07 04:14:31;;;;;;;6.67;3.60;;;;;;;;;;4882034;29;20550;-84
2021/04/07 04:17:40;;;;;;;6.10;4.10;;;;;;;;;;4870966;29;20543;-84
2021/04/07 04:20:47;;;;;;;9.00;4.40;;;;;;;;;;4871895;29;20540;-84
2021/04/07 04:23:51;;;;;;;7.53;3.80;;;;;;;;;;4881892;29;20658;-85
2021/04/07 04:26:55;;;;;;;5.23;3.87;;;;;;;;;;4881657;29;20548;-85
2021/04/07 04:30:00;;;;;;;5.40;3.50;;;;;;;;;;4871223;29;20539;-85
2021/04/07 04:33:05;;;;;;;6.17;3.80;;;;;;;;;;4881568;29;20630;-85
2021/04/07 04:36:09;;;;;;;6.47;5.70;;;;;;;;;;4870972;29;20559;-85
2021/04/07 04:39:13;;;;;;;4.40;3.70;;;;;;;;;;4881316;29;20607;-85
2021/04/07 04:42:17;;;;;;;6.57;4.73;;;;;;;;;;4870652;29;21205;-85
2021/04/07 04:45:21;;;;;;;5.07;3.97;;;;;;;;;;4870616;29;20606;-85
2021/04/07 04:48:25;;;;;;;5.70;4.00;;;;;;;;;;4870600;29;20551;-85
2021/04/07 04:51:30;;;;;;;6.70;4.23;;;;;;;;;;4870854;29;20599;-85
2021/04/07 04:54:34;;;;;;;8.13;4.30;;;;;;;;;;4881086;29;20888;-86
2021/04/07 04:57:38;;;;;;;7.73;4.87;;;;;;;;;;4880964;29;20547;-85
2021/04/07 05:00:43;;;;;;;5.07;3.97;;;;;;;;;;4880821;29;21157;-85
2021/04/07 05:03:47;;;;;;;6.90;4.50;;;;;;;;;;4870253;29;21193;-85
2021/04/07 05:06:53;;;;;;;7.17;5.00;;;;;;;;;;4870490;29;20543;-85
2021/04/07 05:09:57;;;;;;;6.57;4.77;;;;;;;;;;4870131;29;20897;-85
2021/04/07 05:13:01;;;;;;;8.03;4.80;;;;;;;;;;4880618;29;20619;-85
2021/04/07 05:16:05;;;;;;;5.07;4.40;;;;;;;;;;4869905;29;21091;-85
2021/04/07 05:19:10;;;;;;;7.87;5.43;;;;;;;;;;4881184;29;20551;-85
2021/04/07 05:22:15;;;;;;;7.13;5.30;;;;;;;;;;4880494;29;20638;-85
2021/04/07 05:25:19;;;;;;;6.13;5.03;;;;;;;;;;4869933;29;20547;-85
2021/04/07 05:28:23;;;;;;;8.00;5.27;;;;;;;;;;4884276;29;20590;-85
2021/04/07 05:31:27;;;;;;;8.00;7.20;;;;;;;;;;4890234;29;20625;-85
2021/04/07 05:34:32;;;;;;;9.27;5.30;;;;;;;;;;4859596;29;20550;-86
2021/04/07 05:37:36;;;;;;;7.80;5.10;;;;;;;;;;4901791;29;20610;-84
2021/04/07 05:40:41;;;;;;;7.60;5.03;;;;;;;;;;4880254;29;20602;-83
2021/04/07 05:43:45;;;;;;;9.23;5.73;;;;;;;;;;4890613;29;21188;-82
2021/04/07 05:46:49;;;;;;;7.47;5.37;;;;;;;;;;4890850;29;21094;-82
2021/04/07 05:49:53;;;;;;;6.60;5.00;;;;;;;;;;4890881;29;20551;-82
2021/04/07 05:52:57;;;;;;;7.00;5.57;;;;;;;;;;4890573;29;20964;-82
2021/04/07 05:56:02;;;;;;;6.30;4.97;;;;;;;;;;4890542;29;21089;-84
2021/04/07 05:59:05;;;;;;;7.87;5.30;;;;;;;;;;4891211;29;20551;-84
2021/04/07 06:02:10;;;;;;;6.73;4.90;;;;;;;;;;4891564;29;20626;-83
2021/04/07 06:05:14;;;;;;;7.30;4.83;;;;;;;;;;4891696;29;21078;-82
2021/04/07 06:08:19;;;;;;;8.40;5.53;;;;;;;;;;4891967;29;20548;-82
2021/04/07 06:11:23;;;;;;;5.73;4.63;;;;;;;;;;4881299;29;20607;-82
2021/04/07 06:14:27;;;;;;;6.23;5.40;;;;;;;;;;4892307;29;20551;-84
2021/04/07 06:17:32;;;;;;;5.33;4.57;;;;;;;;;;4894824;29;20904;-82
2021/04/07 06:20:47;;;;;;;7.17;4.67;;;;;;;;;;4898551;29;20547;-83
2021/04/07 06:23:51;;;;;;;6.23;4.33;;;;;;;;;;4887970;29;20642;-83
2021/04/07 06:26:55;;;;;;;5.20;4.30;;;;;;;;;;4897872;29;20555;-84
2021/04/07 06:30:00;;;;;;;9.23;4.37;;;;;;;;;;4902234;29;20547;-83
2021/04/07 06:33:05;;;;;;;4.70;4.10;;;;;;;;;;4911421;29;20623;-83
2021/04/07 06:36:09;;;;;;;10.27;4.30;;;;;;;;;;4901150;29;20555;-83
2021/04/07 06:39:13;;;;;;;6.97;5.53;;;;;;;;;;4893060;29;21211;-82
2021/04/07 06:42:18;;;;;;;9.53;4.53;;;;;;;;;;4890824;29;20625;-83
2021/04/07 06:45:22;;;;;;;6.20;5.00;;;;;;;;;;4886831;29;20605;-82
2021/04/07 06:48:27;;;;;;;6.30;4.70;;;;;;;;;;4887246;29;20550;-82
2021/04/07 06:51:35;;;;;;;5.33;4.20;;;;;;;;;;4887034;29;20661;-83
2021/04/07 06:54:40;;;;;;;4.57;3.40;;;;;;;;;;4887110;29;20550;-83
2021/04/07 06:57:45;;;;;;;6.83;4.37;;;;;;;;;;4887187;29;20542;-83
2021/04/07 07:00:49;;;;;;;5.33;3.70;;;;;;;;;;4886876;29;20561;-83
2021/04/07 07:03:53;;;;;;;5.03;3.60;;;;;;;;;;4886744;29;20625;-82
2021/04/07 07:06:59;;;;;;;3.73;3.37;;;;;;;;;;4887038;29;21086;-83
2021/04/07 07:10:04;;;;;;;5.07;3.67;;;;;;;;;;4886749;29;20554;-83
2021/04/07 07:13:10;;;;;;;3.50;3.10;;;;;;;;;;4886859;29;20669;-83
2021/04/07 07:16:28;;;;;;;4.20;3.23;;;;;;;;;;4897613;29;20542;-83
2021/04/07 07:19:32;;;;;;;6.03;3.60;;;;;;;;;;4887457;29;20542;-84
2021/04/07 07:22:37;;;;;;;4.50;3.43;;;;;;;;;;4886722;29;20652;-83
2021/04/07 07:25:42;;;;;;;5.23;3.63;;;;;;;;;;4897309;29;20562;-83
2021/04/07 07:29:08;;;;;;;7.27;4.30;;;;;;;;;;4889378;29;20551;-83
2021/04/07 07:32:13;;;;;;;4.97;3.23;;;;;;;;;;4897183;29;20661;-83
2021/04/07 07:35:17;;;;;;;3.87;3.43;;;;;;;;;;4886629;29;20605;-83
2021/04/07 07:38:25;;;;;;;5.57;3.37;;;;;;;;;;4898137;29;20613;-83
2021/04/07 07:41:34;;;;;;;4.83;3.37;;;;;;;;;;4897559;29;20543;-83
2021/04/07 07:44:39;;;;;;;6.23;3.40;;;;;;;;;;4875972;29;20550;-83
2021/04/07 07:47:45;;;;;;;5.03;3.17;;;;;;;;;;4886185;29;20609;-83
2021/04/07 07:50:50;;;;;;;4.63;3.63;;;;;;;;;;4899120;29;20550;-83
2021/04/07 07:53:55;;;;;;;6.30;3.87;;;;;;;;;;4889765;29;20613;-82
2021/04/07 07:57:09;;;;;;;5.97;3.63;;;;;;;;;;4900464;29;20554;-82
2021/04/07 08:00:14;;;;;;;4.20;3.10;;;;;;;;;;4890169;29;21086;-83
2021/04/07 08:03:18;;;;;;;5.30;3.07;;;;;;;;;;4900100;29;21000;-83
2021/04/07 08:06:22;;;;;;;6.37;3.00;;;;;;;;;;4900445;29;20550;-83
2021/04/07 08:09:36;;;;;;;5.23;2.80;;;;;;;;;;4890919;29;20605;-83
2021/04/07 08:12:42;;;;;;;4.87;3.37;;;;;;;;;;4900332;29;20661;-83
2021/04/07 08:15:47;;;;;;;5.03;3.33;;;;;;;;;;4878933;29;21117;-83
2021/04/07 08:18:53;;;;;;;4.47;2.67;;;;;;;;;;4901199;29;20554;-84
2021/04/07 08:21:59;;;;;;;4.03;2.43;;;;;;;;;;4899712;29;20593;-84
2021/04/07 08:25:05;;;;;;;5.10;3.13;;;;;;;;;;4900014;29;20558;-84
2021/04/07 08:28:10;;;;;;;4.20;2.60;;;;;;;;;;4889330;29;20572;-84
2021/04/07 08:31:16;;;;;;;5.03;3.07;;;;;;;;;;4900135;29;20883;-84
2021/04/07 08:34:23;;;;;;;4.30;2.90;;;;;;;;;;4889446;29;20542;-84
2021/04/07 08:37:35;;;;;;;4.33;3.23;;;;;;;;;;4900167;29;20551;-83
2021/04/07 08:40:43;;;;;;;7.57;3.57;;;;;;;;;;4900376;29;20558;-82
2021/04/07 08:43:47;;;;;;;4.47;3.13;;;;;;;;;;4900194;29;20621;-82
2021/04/07 08:46:57;;;;;;;4.37;2.50;;;;;;;;;;4889170;29;20887;-82
2021/04/07 08:50:07;;;;;;;5.37;2.90;;;;;;;;;;4888687;29;20629;-82
2021/04/07 08:53:14;;;;;;;7.33;3.03;;;;;;;;;;4900687;29;21240;-82
2021/04/07 08:56:26;;;;;;;4.83;2.77;;;;;;;;;;4879501;29;20563;-81
2021/04/07 08:59:30;;;;;;;7.10;3.07;;;;;;;;;;4890125;29;20542;-81
2021/04/07 09:02:51;;;;;;;4.97;2.50;;;;;;;;;;4889739;29;21196;-81
2021/04/07 09:05:56;;;;;;;5.67;2.70;;;;;;;;;;4901958;29;20601;-81
2021/04/07 09:09:02;;;;;;;7.63;2.90;;;;;;;;;;4890096;29;20538;-81
2021/04/07 09:12:08;;;;;;;3.30;2.13;;;;;;;;;;4889947;29;20661;-82
2021/04/07 09:15:18;;;;;;;3.23;2.40;;;;;;;;;;4900943;29;21160;-81
2021/04/07 09:18:37;;;;;;;4.27;2.37;;;;;;;;;;4901110;29;20597;-81
2021/04/07 09:21:53;;;;;;;3.33;2.40;;;;;;;;;;4888824;29;21085;-81
2021/04/07 09:25:08;;;;;;;3.17;2.30;;;;;;;;;;4889283;29;20542;-81
2021/04/07 09:28:13;;;;;;;3.43;2.50;;;;;;;;;;4889155;29;20542;-81
2021/04/07 09:31:32;;;;;;;6.47;2.27;;;;;;;;;;4899875;29;20550;-82
2021/04/07 09:34:36;;;;;;;5.93;2.40;;;;;;;;;;4899444;29;20531;-81
2021/04/07 09:37:40;;;;;;;3.37;2.30;;;;;;;;;;4888818;29;20546;-82
2021/04/07 09:40:44;;;;;;;4.00;2.37;;;;;;;;;;4888724;29;20601;-82
2021/04/07 09:43:49;;;;;;;9.47;2.57;;;;;;;;;;4888981;29;20625;-82
2021/04/07 09:46:58;;;;;;;2.93;1.80;;;;;;;;;;4888801;29;20554;-82
2021/04/07 09:50:10;;;;;;;2.30;1.90;;;;;;;;;;4899687;29;20546;-82
2021/04/07 09:53:27;;;;;;;3.10;2.10;;;;;;;;;;4899400;29;21223;-82
2021/04/07 09:56:31;;;;;;;4.43;2.13;;;;;;;;;;4899502;29;20551;-82
2021/04/07 09:59:43;;;;;;;4.53;1.90;;;;;;;;;;4899238;29;20546;-81
2021/04/07 10:02:47;;;;;;;3.23;1.80;;;;;;;;;;4899374;29;20626;-82
2021/04/07 10:05:51;;;;;;;5.73;2.67;;;;;;;;;;4899227;29;21085;-82
2021/04/07 10:09:06;;;;;;;5.73;2.53;;;;;;;;;;4899232;29;20546;-82
2021/04/07 10:12:12;;;;;;;3.43;1.93;;;;;;;;;;4888082;29;20626;-81
2021/04/07 10:15:17;;;;;;;2.40;1.50;;;;;;;;;;4888657;29;21101;-82
2021/04/07 10:18:22;;;;;;;4.10;1.90;;;;;;;;;;4899569;29;20546;-82
2021/04/07 10:21:27;;;;;;;4.27;2.00;;;;;;;;;;4887772;29;20609;-81
2021/04/07 10:24:32;;;;;;;5.17;2.30;;;;;;;;;;4880598;29;20614;-84
2021/04/07 10:27:36;;;;;;;3.27;2.63;;;;;;;;;;4881031;29;20617;-84
2021/04/07 10:30:42;;;;;;;1.63;1.20;;;;;;;;;;4880641;29;20551;-84
2021/04/07 10:33:46;;;;;;;2.97;1.90;;;;;;;;;;4869220;29;20666;-84
2021/04/07 10:36:53;;;;;;;1.97;1.37;;;;;;;;;;4869520;29;20543;-84
2021/04/07 10:39:57;;;;;;;5.13;1.67;;;;;;;;;;4869295;29;20527;-84
2021/04/07 10:43:15;;;;;;;6.33;1.57;;;;;;;;;;4880121;29;20571;-85
2021/04/07 10:46:31;;;;;;;6.47;1.60;;;;;;;;;;4880549;29;20623;-84
2021/04/07 10:49:54;;;;;;;2.53;1.40;;;;;;;;;;4870144;29;20543;-84
2021/04/07 10:52:58;;;;;;;4.40;1.80;;;;;;;;;;4868949;29;20662;-85
2021/04/07 10:56:17;;;;;;;1.77;1.10;;;;;;;;;;4896910;29;20594;-84
2021/04/07 10:59:27;;;;;;;5.20;1.50;;;;;;;;;;4898877;29;20555;-84
2021/04/07 11:02:51;;;;;;;2.77;1.00;;;;;;;;;;4879583;29;20626;-84
2021/04/07 11:05:55;;;;;;;1.50;1.10;;;;;;;;;;4881480;29;20597;-84
2021/04/07 11:08:59;;;;;;;2.70;2.00;;;;;;;;;;4887480;29;20542;-84
2021/04/07 11:12:05;;;;;;;7.27;2.03;;;;;;;;;;4887152;29;20217;-84
2021/04/07 11:15:13;;;;;;;2.63;1.20;;;;;;;;;;4887981;29;20178;-86
2021/04/07 11:18:28;;;;;;;3.47;1.40;;;;;;;;;;4887625;29;20186;-86
2021/04/07 11:21:32;;;;;;;2.93;1.03;;;;;;;;;;4887942;29;20181;-87
2021/04/07 11:24:37;;;;;;;4.70;1.23;;;;;;;;;;4876808;29;20178;-84
2021/04/07 11:27:42;;;;;;;2.87;1.40;;;;;;;;;;4902138;29;20193;-85
2021/04/07 11:31:03;;;;;;;3.23;1.07;;;;;;;;;;4902434;29;20201;-86
2021/04/07 11:34:12;;;;;;;2.63;1.10;;;;;;;;;;4903155;29;20214;-86
2021/04/07 11:44:23;;;;;;;4.97;2.20;;;;;;;;;;4901463;29;20218;-86
2021/04/07 11:47:03;;;;;;;7.33;2.67;;;;;;;;;;4901844;29;20182;-87
2021/04/07 11:50:07;;;;;;;3.63;1.60;;;;;;;;;;4892046;29;20219;-87
2021/04/07 11:53:12;;;;;;;9.33;3.73;;;;;;;;;;4902732;29;20689;-87
2021/04/07 11:56:17;;;;;;;13.10;4.53;;;;;;;;;;4902216;29;20561;-87
2021/04/07 11:59:35;;;;;;;12.30;4.43;;;;;;;;;;4891981;29;20186;-88
2021/04/07 12:02:42;;;;;;;32.30;17.03;;;;;;;;;;4890178;29;20225;-87
2021/04/07 12:05:46;;;;;;;4.23;1.43;;;;;;;;;;4879105;29;20530;-87
2021/04/07 12:08:50;;;;;;;3.03;1.10;;;;;;;;;;4889816;29;20207;-87
2021/04/07 12:11:55;;;;;;;2.90;1.00;;;;;;;;;;4879478;29;20190;-87
2021/04/07 12:15:00;;;;;;;3.10;1.30;;;;;;;;;;4890433;29;20185;-84
2021/04/07 12:18:05;;;;;;;9.83;1.73;;;;;;;;;;4891110;29;20189;-87
2021/04/07 12:21:15;;;;;;;4.00;2.33;;;;;;;;;;4889975;29;20523;-88
2021/04/07 12:24:19;;;;;;;2.27;1.10;;;;;;;;;;4880080;29;20182;-88
2021/04/07 12:27:23;;;;;;;7.93;1.47;;;;;;;;;;4901208;29;20209;-87
2021/04/07 12:30:28;;;;;;;2.63;1.47;;;;;;;;;;4902559;29;20193;-86
2021/04/07 12:33:32;;;;;;;6.13;2.80;;;;;;;;;;4895518;29;20229;-87
2021/04/07 12:36:36;;;;;;;3.60;1.60;;;;;;;;;;4898603;29;20201;-86
2021/04/07 12:39:41;;;;;;;4.80;2.50;;;;;;;;;;4889663;29;20523;-86
2021/04/07 12:42:45;;;;;;;3.67;1.60;;;;;;;;;;4899976;29;20229;-86
2021/04/07 12:45:49;;;;;;;2.57;1.30;;;;;;;;;;4878445;29;20197;-86
2021/04/07 12:48:55;;;;;;;2.47;1.43;;;;;;;;;;4901058;29;20189;-86
2021/04/07 12:51:59;;;;;;;12.73;1.60;;;;;;;;;;4899944;29;20205;-83
2021/04/07 12:55:03;;;;;;;5.03;1.30;;;;;;;;;;4900182;29;20213;-85
2021/04/07 12:58:09;;;;;;;2.27;1.10;;;;;;;;;;4870386;29;20182;-87
2021/04/07 13:01:13;;;;;;;2.00;1.17;;;;;;;;;;4881174;29;20194;-87
2021/04/07 13:04:17;;;;;;;4.87;1.47;;;;;;;;;;4870154;29;20178;-87
2021/04/07 13:07:21;;;;;;;1.20;1.10;;;;;;;;;;4870753;29;20186;-85
2021/04/07 13:10:25;;;;;;;3.10;1.20;;;;;;;;;;4881349;29;20210;-84
2021/04/07 13:13:29;;;;;;;3.90;1.50;;;;;;;;;;4897599;29;20229;-83
2021/04/07 13:16:34;;;;;;;1.27;0.97;;;;;;;;;;4899047;29;20209;-82
2021/04/07 13:19:39;;;;;;;6.93;1.60;;;;;;;;;;4900273;29;20673;-82
2021/04/07 13:22:43;;;;;;;5.07;1.50;;;;;;;;;;4899466;29;20225;-82
2021/04/07 13:25:48;;;;;;;2.03;1.43;;;;;;;;;;4900177;29;20685;-82
2021/04/07 13:28:52;;;;;;;5.53;1.40;;;;;;;;;;4899219;29;20205;-83
2021/04/07 13:31:56;;;;;;;13.00;1.77;;;;;;;;;;4888098;29;20209;-83
2021/04/07 13:35:08;;;;;;;1.20;1.00;;;;;;;;;;4888761;29;20213;-81
2021/04/07 13:41:41;;;;;;;3.60;1.20;;;;;;;;;;4888068;29;20209;-82
2021/04/07 13:44:45;;;;;;;2.23;1.13;;;;;;;;;;4899643;29;20201;-82
2021/04/07 13:47:50;;;;;;;2.90;1.13;;;;;;;;;;4887662;29;20669;-83
2021/04/07 13:50:54;;;;;;;2.13;1.30;;;;;;;;;;4877128;29;20606;-82
2021/04/07 13:53:58;;;;;;;2.77;1.67;;;;;;;;;;4899668;29;20657;-83
2021/04/07 13:57:17;;;;;;;2.30;1.50;;;;;;;;;;4898690;29;20601;-82
2021/04/07 14:00:22;;;;;;;2.97;1.60;;;;;;;;;;4887680;29;20598;-81
2021/04/07 14:03:27;;;;;;;2.60;1.90;;;;;;;;;;4887712;29;20625;-82
2021/04/07 14:06:31;;;;;;;3.53;2.27;;;;;;;;;;4898846;29;20550;-82
2021/04/07 14:09:35;;;;;;;4.03;2.03;;;;;;;;;;4877114;29;20601;-83
2021/04/07 14:12:44;;;;;;;2.20;1.97;;;;;;;;;;4887456;29;20622;-82
2021/04/07 14:15:48;;;;;;;3.03;1.90;;;;;;;;;;4887628;29;20597;-82
2021/04/07 14:18:52;;;;;;;2.33;1.93;;;;;;;;;;4898270;29;20618;-83
2021/04/07 14:21:56;;;;;;;5.13;2.03;;;;;;;;;;4897923;29;20593;-83
2021/04/07 14:25:03;;;;;;;3.10;1.60;;;;;;;;;;4898538;29;20542;-83
2021/04/07 14:28:07;;;;;;;3.33;1.70;;;;;;;;;;4898148;29;21130;-82
2021/04/07 14:31:11;;;;;;;2.40;1.33;;;;;;;;;;4899205;29;20566;-82
2021/04/07 14:34:15;;;;;;;2.63;2.43;;;;;;;;;;4898770;29;20598;-83
2021/04/07 14:37:19;;;;;;;2.77;1.90;;;;;;;;;;4898727;29;20542;-83
2021/04/07 14:40:23;;;;;;;2.33;1.80;;;;;;;;;;4898114;29;21121;-83
2021/04/07 14:43:28;;;;;;;3.03;1.70;;;;;;;;;;4887658;29;20625;-83
2021/04/07 14:46:32;;;;;;;2.83;1.70;;;;;;;;;;4898156;29;20957;-82
2021/04/07 14:49:36;;;;;;;2.90;1.80;;;;;;;;;;4898139;29;20562;-81
2021/04/07 14:52:40;;;;;;;2.23;1.50;;;;;;;;;;4898187;29;20629;-85
2021/04/07 14:55:45;;;;;;;7.87;1.77;;;;;;;;;;4898140;29;21009;-85
2021/04/07 14:58:50;;;;;;;4.03;1.37;;;;;;;;;;4888093;29;20562;-86
2021/04/07 15:01:55;;;;;;;2.77;2.23;;;;;;;;;;4880152;29;20546;-85
2021/04/07 15:04:59;;;;;;;4.13;1.83;;;;;;;;;;4891713;29;21070;-85
2021/04/07 15:08:08;;;;;;;2.70;1.90;;;;;;;;;;4884415;29;21110;-87
2021/04/07 15:11:17;;;;;;;2.27;1.30;;;;;;;;;;4890548;29;20562;-87
2021/04/07 15:14:33;;;;;;;3.20;1.40;;;;;;;;;;4890812;29;20597;-87
2021/04/07 16:21:12;;;;;;;14.47;5.63;;;;;;;;;;4884676;29;21162;-82
2021/04/07 16:24:16;;;;;;;8.93;2.93;;;;;;;;;;4893573;29;20614;-83
2021/04/07 16:27:20;;;;;;;5.03;2.37;;;;;;;;;;4894046;29;20912;-82
2021/04/07 16:30:27;;;;;;;6.57;1.83;;;;;;;;;;4895852;29;20629;-82
2021/04/07 16:33:31;;;;;;;4.47;1.90;;;;;;;;;;4901045;29;20625;-83
2021/04/07 16:36:36;;;;;;;2.03;1.50;;;;;;;;;;4890635;29;20594;-83
2021/04/07 16:39:41;;;;;;;4.33;3.10;;;;;;;;;;4902686;29;20566;-83
2021/04/07 16:42:46;;;;;;;3.27;1.97;;;;;;;;;;4901332;29;21211;-81
2021/04/07 16:45:51;;;;;;;5.53;2.60;;;;;;;;;;4901260;29;20593;-82
2021/04/07 16:48:55;;;;;;;3.30;1.57;;;;;;;;;;4902283;29;20555;-82
2021/04/07 16:52:00;;;;;;;4.33;1.90;;;;;;;;;;4902448;29;20550;-81
2021/04/07 16:55:07;;;;;;;3.57;1.83;;;;;;;;;;4902565;29;20602;-81
2021/04/07 16:58:11;;;;;;;2.90;1.60;;;;;;;;;;4883252;29;20556;-81
2021/04/07 17:01:15;;;;;;;2.70;1.50;;;;;;;;;;4883577;29;20602;-85
2021/04/07 17:04:19;;;;;;;7.50;2.00;;;;;;;;;;4882789;29;20607;-85
2021/04/07 17:07:24;;;;;;;6.87;3.57;;;;;;;;;;4879561;29;20605;-86
2021/04/07 17:10:28;;;;;;;4.97;2.40;;;;;;;;;;4902726;29;20554;-87
2021/04/07 17:13:32;;;;;;;6.07;2.50;;;;;;;;;;4879915;29;20621;-86
2021/04/07 17:16:36;;;;;;;3.97;2.40;;;;;;;;;;4900072;29;20875;-85
2021/04/07 17:19:41;;;;;;;2.57;1.70;;;;;;;;;;4878874;29;20558;-86
2021/04/07 17:22:45;;;;;;;4.63;1.90;;;;;;;;;;4877420;29;20622;-86
2021/04/07 17:25:50;;;;;;;5.70;3.43;;;;;;;;;;4901193;29;20543;-86
2021/04/07 17:28:54;;;;;;;4.17;2.43;;;;;;;;;;4901187;29;20609;-86
2021/04/07 17:31:58;;;;;;;2.77;1.87;;;;;;;;;;4879520;29;20550;-86
2021/04/07 17:35:05;;;;;;;4.33;1.87;;;;;;;;;;4901874;29;20640;-86
2021/04/07 17:38:17;;;;;;;2.43;1.80;;;;;;;;;;4890501;29;20609;-86
2021/04/07 17:41:22;;;;;;;3.57;1.80;;;;;;;;;;4889966;29;20946;-86
2021/04/07 17:44:26;;;;;;;5.27;1.73;;;;;;;;;;4901537;29;20547;-86
2021/04/07 17:47:31;;;;;;;5.13;1.87;;;;;;;;;;4899648;29;20977;-87
2021/04/07 17:50:35;;;;;;;6.60;2.07;;;;;;;;;;4889312;29;20908;-87
2021/04/07 17:53:39;;;;;;;4.70;2.03;;;;;;;;;;4888966;29;20622;-86
2021/04/07 17:56:43;;;;;;;4.17;2.13;;;;;;;;;;4901703;29;20558;-86
2021/04/07 17:59:48;;;;;;;3.90;2.57;;;;;;;;;;4879220;29;20542;-86
2021/04/07 18:02:53;;;;;;;2.80;2.03;;;;;;;;;;4900406;29;21192;-86
2021/04/07 18:05:57;;;;;;;3.10;2.23;;;;;;;;;;4901272;29;20880;-86
2021/04/07 18:09:02;;;;;;;3.90;3.20;;;;;;;;;;4904238;29;20561;-86
2021/04/07 18:12:09;;;;;;;4.43;2.03;;;;;;;;;;4890664;29;20629;-86
2021/04/07 18:15:14;;;;;;;3.20;1.77;;;;;;;;;;4890299;29;20606;-86
2021/04/07 18:18:19;;;;;;;3.57;2.37;;;;;;;;;;4871578;29;20559;-86
2021/04/07 18:21:23;;;;;;;3.73;2.10;;;;;;;;;;4883162;29;20598;-87
2021/04/07 18:24:28;;;;;;;8.40;3.13;;;;;;;;;;4894419;29;20618;-86
2021/04/07 18:27:32;;;;;;;2.73;2.10;;;;;;;;;;4892421;29;20559;-87
2021/04/07 18:30:42;;;;;;;3.53;2.13;;;;;;;;;;4891810;29;20622;-86
2021/04/07 18:33:47;;;;;;;3.73;2.33;;;;;;;;;;4881062;29;20630;-86
2021/04/07 18:36:51;;;;;;;5.43;2.87;;;;;;;;;;4873858;29;20962;-86
2021/04/07 18:39:56;;;;;;;8.57;4.43;;;;;;;;;;4897547;29;20649;-86
2021/04/07 18:43:00;;;;;;;5.40;3.70;;;;;;;;;;4913946;29;20990;-86
2021/04/07 18:46:04;;;;;;;4.43;3.20;;;;;;;;;;4894888;29;20594;-87
2021/04/07 18:49:10;;;;;;;4.20;3.10;;;;;;;;;;4906965;29;20554;-86
2021/04/07 18:52:14;;;;;;;5.97;3.23;;;;;;;;;;4927127;29;20629;-86
2021/04/07 18:55:19;;;;;;;5.27;3.37;;;;;;;;;;4866684;29;20654;-87
2021/04/07 18:58:23;;;;;;;7.83;3.50;;;;;;;;;;4886237;29;21173;-86
2021/04/07 19:01:29;;;;;;;6.30;3.60;;;;;;;;;;4905334;29;20551;-86
2021/04/07 19:04:33;;;;;;;5.83;3.73;;;;;;;;;;4923023;29;20585;-85
2021/04/07 19:07:37;;;;;;;5.63;3.13;;;;;;;;;;4902275;29;20916;-86
2021/04/07 19:10:42;;;;;;;6.70;3.47;;;;;;;;;;4898825;29;20618;-86
2021/04/07 19:13:46;;;;;;;4.67;3.30;;;;;;;;;;4898712;29;21001;-85
2021/04/07 19:16:50;;;;;;;5.30;3.10;;;;;;;;;;4899512;29;20597;-85
2021/04/07 19:19:54;;;;;;;5.07;3.37;;;;;;;;;;4898132;29;20613;-85
2021/04/07 19:22:58;;;;;;;6.03;3.53;;;;;;;;;;4887769;29;20629;-85
2021/04/07 19:26:17;;;;;;;4.10;2.80;;;;;;;;;;5111397;27;21317;-76
2021/04/07 19:29:22;;;;;;;3.63;2.77;;;;;;;;;;5110151;28;20623;-76
2021/04/07 19:32:26;;;;;;;3.50;3.00;;;;;;;;;;5096373;28;20971;-75
2021/04/07 19:35:30;;;;;;;4.60;3.13;;;;;;;;;;5095274;28;20576;-75
2021/04/07 19:38:34;;;;;;;4.73;3.23;;;;;;;;;;5110222;28;20619;-76
2021/04/07 19:41:38;;;;;;;5.20;3.47;;;;;;;;;;5077816;28;20585;-76
2021/04/07 19:44:42;;;;;;;6.10;3.20;;;;;;;;;;5105630;28;20620;-77
2021/04/07 19:47:50;;;;;;;6.00;3.10;;;;;;;;;;5110100;28;20911;-76